Wetterdaten: aktuell Samstag, 17.11.2018 07:50
Datum Zeit Temp. 2m rel. Feuchte Luftdruck Regen Wind Richtung Richtung Sonne ET UV-Index Solar Taupunkt Ben
17.11.2018 07:50 0,9 C 90 % 1030,2 hPa 0,0 mm 0,0 km/h (0 Bft) S 176 0 min 0,0 mm 0,0 UV-I 2 W/m -0,6 C 0,0 km/h (0 Bft)
17.11.2018 06:50 1,8 C 90 % 1029,7 hPa 0,0 mm 0,0 km/h (0 Bft) S-SO 168 0 min 0,0 mm 0,0 UV-I 0 W/m 0,3 C 0,0 km/h (0 Bft)
17.11.2018 05:50 2,0 C 91 % 1029,7 hPa 0,0 mm 0,2 km/h (0 Bft) S 177 0 min 0,0 mm 0,0 UV-I 0 W/m 0,7 C 2,2 km/h (1 Bft)
17.11.2018 04:50 1,9 C 88 % 1029,5 hPa 0,0 mm 0,0 km/h (0 Bft) S-SO 154 0 min 0,0 mm 0,0 UV-I 0 W/m 0,1 C 0,0 km/h (0 Bft)
17.11.2018 03:50 3,0 C 85 % 1029,4 hPa 0,0 mm 0,0 km/h (0 Bft) S-SO 155 0 min 0,0 mm 0,0 UV-I 0 W/m 0,7 C 0,0 km/h (0 Bft)
17.11.2018 02:50 4,5 C 82 % 1029,6 hPa 0,0 mm 0,6 km/h (0 Bft) S-SO 161 0 min 0,0 mm 0,0 UV-I 0 W/m 1,7 C 4,4 km/h (1 Bft)
17.11.2018 01:50 5,3 C 81 % 1029,4 hPa 0,0 mm 7,2 km/h (2 Bft) S 174 0 min 0,0 mm 0,0 UV-I 0 W/m 2,3 C 15,5 km/h (3 Bft)
17.11.2018 00:50 4,8 C 83 % 1029,3 hPa 0,0 mm 4,3 km/h (1 Bft) S-SO 150 0 min 0,0 mm 0,0 UV-I 0 W/m 2,2 C 11,1 km/h (2 Bft)
16.11.2018 23:50 5,3 C 82 % 1029,2 hPa 0,0 mm 4,1 km/h (1 Bft) S 180 0 min 0,0 mm 0,0 UV-I 0 W/m 2,5 C 15,5 km/h (3 Bft)
16.11.2018 22:50 5,6 C 82 % 1029,2 hPa 0,0 mm 3,5 km/h (1 Bft) S 172 0 min 0,0 mm 0,0 UV-I 0 W/m 2,8 C 13,3 km/h (3 Bft)
16.11.2018 21:50 6,1 C 80 % 1029,3 hPa 0,0 mm 4,3 km/h (1 Bft) S 189 0 min 0,0 mm 0,0 UV-I 0 W/m 2,9 C 11,1 km/h (2 Bft)
16.11.2018 20:50 6,6 C 79 % 1029,1 hPa 0,0 mm 5,3 km/h (1 Bft) S 174 0 min 0,0 mm 0,0 UV-I 0 W/m 3,2 C 15,5 km/h (3 Bft)
16.11.2018 19:50 7,0 C 78 % 1028,7 hPa 0,0 mm 3,0 km/h (1 Bft) S-SO 162 0 min 0,0 mm 0,0 UV-I 0 W/m 3,4 C 8,9 km/h (2 Bft)
16.11.2018 18:50 7,2 C 77 % 1028,5 hPa 0,0 mm 2,5 km/h (1 Bft) S-SO 161 0 min 0,0 mm 0,0 UV-I 0 W/m 3,4 C 8,9 km/h (2 Bft)
16.11.2018 17:50 7,8 C 72 % 1028,0 hPa 0,0 mm 2,2 km/h (1 Bft) S 178 0 min 0,0 mm 0,0 UV-I 0 W/m 3,1 C 8,9 km/h (2 Bft)
16.11.2018 16:50 10,1 C 63 % 1027,9 hPa 0,0 mm 5,5 km/h (1 Bft) S-SW 200 5 min 0,1 mm 0,0 UV-I 5 W/m 3,4 C 13,3 km/h (3 Bft)
16.11.2018 15:50 11,4 C 59 % 1027,8 hPa 0,0 mm 8,6 km/h (2 Bft) S 176 60 min 0,1 mm 0,0 UV-I 77 W/m 3,7 C 22,2 km/h (4 Bft)
16.11.2018 14:50 12,5 C 59 % 1027,8 hPa 0,0 mm 6,5 km/h (2 Bft) S-SO 162 60 min 0,2 mm 0,0 UV-I 188 W/m 4,7 C 15,5 km/h (3 Bft)
16.11.2018 13:50 12,8 C 60 % 1028,0 hPa 0,0 mm 5,0 km/h (1 Bft) SO 124 60 min 0,2 mm 0,1 UV-I 257 W/m 5,2 C 15,5 km/h (3 Bft)
16.11.2018 12:50 11,1 C 66 % 1028,3 hPa 0,0 mm 8,4 km/h (2 Bft) S 169 60 min 0,1 mm 0,1 UV-I 295 W/m 5,0 C 20,0 km/h (4 Bft)
16.11.2018 11:50 9,7 C 74 % 1028,6 hPa 0,0 mm 9,4 km/h (2 Bft) S-SO 151 60 min 0,1 mm 0,2 UV-I 285 W/m 5,3 C 22,2 km/h (4 Bft)
16.11.2018 10:50 7,9 C 81 % 1028,8 hPa 0,0 mm 9,8 km/h (2 Bft) S-SO 158 60 min 0,1 mm 0,1 UV-I 235 W/m 4,8 C 24,4 km/h (4 Bft)
16.11.2018 09:50 6,4 C 85 % 1028,5 hPa 0,0 mm 6,8 km/h (2 Bft) S 177 50 min 0,0 mm 0,0 UV-I 157 W/m 4,1 C 17,8 km/h (3 Bft)
16.11.2018 08:50 5,3 C 88 % 1028,3 hPa 0,0 mm 5,0 km/h (1 Bft) S-SO 166 10 min 0,0 mm 0,0 UV-I 68 W/m 3,5 C 13,3 km/h (3 Bft)
16.11.2018 08:00 5,4 C 87 % 1027,7 hPa 0,0 mm 8,7 km/h (2 Bft) SO 135 0 min 0,0 mm 0,0 UV-I 10 W/m 3,4 C 22,2 km/h (4 Bft)
_ Min-Zeit 07:50 14:30 08:05 - 17:15 - - - - - - 07:50 17:15
Minimum _ 0,9 C 58 % 1027,6 hPa - 0,0 km/h (0 Bft) - - - - - - -0,6 C 0,0 km/h (0 Bft)
_ Max-Zeit 14:15 05:40 07:50 08:00 10:40 - - 08:05 14:00 11:45 12:40 14:05 10:20
Maximum _ 13,1 C 91 % 1030,2 hPa 0,0 mm 13,8 km/h
SO (3 Bft)
- - 5 min 0,2 mm 0,2 UV-I 299 W/m 5,7 C 35,5 km/h
S (5 Bft)
Durchschnitt _ 6,5 C 79 % 1028,7 hPa #0,0 mm 4,7 km/h (1 Bft) S - #0 min. #0,000 mm 0,0 UV-I 2 W/m 3,0 C 13,1 km/h (3 Bft)



© 1998 - 2018 www.pulheimwetter.de